Time;durP1;ratioP1;P1;durP2;ratioP2;P2;SDS_P1;SDS_P2;PMS_P1;PMS_P2;Temp;Humidity;BMP_temperature;BMP_pressure;BME280_temperature;BME280_humidity;BME280_pressure;Samples;Min_cycle;Max_cycle;Signal;HPM_P1;HPM_P2
2020/12/13 00:01:27;;;;;;;3.13;2.30;;;;;;;4.12;90.00;94551.88;5102416;28;20203;-76
2020/12/13 00:03:53;;;;;;;2.73;2.33;;;;;;;4.16;89.11;94557.59;5113121;28;20256;-75
2020/12/13 00:06:18;;;;;;;2.53;2.27;;;;;;;4.12;89.29;94558.78;5079838;28;20646;-75
2020/12/13 00:08:43;;;;;;;3.60;2.47;;;;;;;4.07;89.55;94556.63;5105611;28;20183;-75
2020/12/13 00:11:09;;;;;;;2.43;2.20;;;;;;;4.08;89.04;94558.25;5076126;28;20546;-76
2020/12/13 00:13:34;;;;;;;2.33;1.80;;;;;;;4.09;89.11;94559.88;5076031;28;20278;-75
2020/12/13 00:15:59;;;;;;;2.30;2.10;;;;;;;4.05;88.99;94555.94;5089827;28;20240;-75
2020/12/13 00:18:25;;;;;;;1.90;1.70;;;;;;;4.03;89.35;94565.53;5062435;28;20178;-75
2020/12/13 00:20:50;;;;;;;1.83;1.73;;;;;;;4.02;89.05;94561.34;5096144;28;20671;-76
2020/12/13 00:23:15;;;;;;;2.27;1.67;;;;;;;3.98;89.34;94565.94;5096251;28;20248;-76
2020/12/13 00:25:41;;;;;;;3.63;1.93;;;;;;;3.99;89.26;94571.88;5098488;28;20671;-76
2020/12/13 00:28:06;;;;;;;1.70;1.60;;;;;;;4.04;89.53;94574.03;5079029;28;20176;-76
2020/12/13 00:30:31;;;;;;;1.63;1.50;;;;;;;4.00;89.25;94573.50;5113786;28;20172;-76
2020/12/13 00:32:57;;;;;;;3.57;2.00;;;;;;;4.02;89.13;94578.50;5096229;28;20203;-75
2020/12/13 00:35:22;;;;;;;5.10;2.77;;;;;;;4.01;89.25;94577.69;5108352;28;20290;-75
2020/12/13 00:37:51;;;;;;;2.57;1.70;;;;;;;4.01;89.37;94579.47;5058891;28;20187;-75
2020/12/13 00:40:16;;;;;;;2.60;1.70;;;;;;;3.98;89.32;94580.53;5075571;28;20176;-75
2020/12/13 00:42:41;;;;;;;2.23;1.60;;;;;;;3.94;89.25;94586.88;5074305;28;20568;-76
2020/12/13 00:45:06;;;;;;;1.70;1.60;;;;;;;3.98;89.02;94581.34;5072154;28;20212;-76
2020/12/13 00:47:32;;;;;;;2.67;1.90;;;;;;;3.96;89.28;94579.84;5061656;28;20197;-75
2020/12/13 00:49:57;;;;;;;2.57;1.70;;;;;;;3.96;88.86;94585.78;5113857;28;20179;-76
2020/12/13 00:52:22;;;;;;;2.33;1.40;;;;;;;4.00;88.44;94590.69;5114076;28;20211;-76
2020/12/13 00:54:48;;;;;;;3.13;1.60;;;;;;;3.96;88.82;94592.69;5095491;28;20232;-75
2020/12/13 00:57:13;;;;;;;1.73;1.60;;;;;;;3.95;88.98;94601.34;5092899;28;20669;-75
2020/12/13 00:59:38;;;;;;;2.73;1.70;;;;;;;3.92;88.93;94604.97;5078318;28;20232;-76
2020/12/13 01:02:05;;;;;;;1.93;1.70;;;;;;;3.94;88.50;94599.72;5095184;28;20206;-75
2020/12/13 01:04:32;;;;;;;1.90;1.80;;;;;;;3.93;88.12;94605.78;5113719;28;20675;-76
2020/12/13 01:07:03;;;;;;;1.83;1.70;;;;;;;3.88;88.79;94600.22;5102195;28;20632;-75
2020/12/13 01:09:29;;;;;;;2.33;2.00;;;;;;;3.85;88.61;94606.44;5077248;28;20233;-76
2020/12/13 01:11:54;;;;;;;2.03;1.83;;;;;;;3.84;88.53;94616.84;5113298;28;20171;-75
2020/12/13 01:14:19;;;;;;;2.10;1.70;;;;;;;3.83;88.54;94618.59;5095291;28;20601;-76
2020/12/13 01:16:45;;;;;;;1.57;1.47;;;;;;;3.83;88.58;94616.03;5074958;28;20178;-76
2020/12/13 01:19:10;;;;;;;1.80;1.67;;;;;;;3.82;88.79;94613.59;5074249;28;20662;-76
2020/12/13 01:21:35;;;;;;;1.67;1.30;;;;;;;3.80;88.66;94623.16;5093025;28;20230;-76
2020/12/13 01:24:01;;;;;;;2.67;1.63;;;;;;;3.78;88.77;94620.72;5092524;28;20202;-76
2020/12/13 01:26:27;;;;;;;1.87;1.50;;;;;;;3.79;88.54;94624.13;5074662;28;20218;-75
2020/12/13 01:28:52;;;;;;;1.37;1.27;;;;;;;3.80;88.53;94628.31;5053911;28;20199;-75
2020/12/13 01:31:19;;;;;;;1.40;1.30;;;;;;;3.79;88.98;94629.25;5074686;28;20517;-75
2020/12/13 01:33:45;;;;;;;1.50;1.40;;;;;;;3.78;88.90;94640.47;5074409;28;20203;-75
2020/12/13 01:36:15;;;;;;;1.47;1.27;;;;;;;3.78;88.97;94637.91;5092840;28;20177;-75
2020/12/13 01:38:40;;;;;;;1.37;1.20;;;;;;;3.79;88.68;94639.53;5072227;28;20234;-76
2020/12/13 01:41:05;;;;;;;2.30;1.30;;;;;;;3.77;88.80;94646.53;5074293;28;20200;-76
2020/12/13 01:43:31;;;;;;;1.80;1.30;;;;;;;3.76;89.07;94650.88;5092425;28;20220;-76
2020/12/13 01:45:56;;;;;;;2.43;2.20;;;;;;;3.80;88.60;94649.69;5074044;28;20184;-76
2020/12/13 01:48:26;;;;;;;2.63;2.20;;;;;;;3.78;88.76;94658.44;5057704;28;20187;-76
2020/12/13 01:51:05;;;;;;;3.07;1.70;;;;;;;3.77;88.89;94662.75;5053521;28;20675;-75
2020/12/13 01:53:33;;;;;;;1.60;1.50;;;;;;;3.78;89.20;94666.97;5080982;28;20286;-76
2020/12/13 01:56:01;;;;;;;1.57;1.30;;;;;;;3.82;89.29;94667.53;5077006;28;20233;-76
2020/12/13 01:58:30;;;;;;;1.60;1.50;;;;;;;3.80;89.20;94664.25;5077561;28;20257;-75
2020/12/13 02:00:56;;;;;;;2.30;1.50;;;;;;;3.83;89.38;94669.16;5093531;28;20237;-75
2020/12/13 02:03:23;;;;;;;1.87;1.47;;;;;;;3.83;89.65;94669.16;5083723;28;20196;-75
2020/12/13 02:05:53;;;;;;;1.30;1.20;;;;;;;3.81;89.34;94665.91;5110820;28;20175;-76
2020/12/13 02:08:22;;;;;;;1.60;1.50;;;;;;;3.80;89.32;94669.38;5098568;28;20662;-76
2020/12/13 02:10:47;;;;;;;1.97;1.47;;;;;;;3.83;89.89;94664.03;5086958;28;20711;-75
2020/12/13 02:13:12;;;;;;;3.70;1.50;;;;;;;3.82;89.94;94673.47;5070008;28;20197;-76
2020/12/13 02:15:38;;;;;;;1.87;1.70;;;;;;;3.83;89.94;94674.28;5092383;28;20221;-75
2020/12/13 02:18:03;;;;;;;3.83;1.80;;;;;;;3.87;89.56;94678.22;5073933;28;20180;-76
2020/12/13 02:20:28;;;;;;;2.43;2.17;;;;;;;3.88;89.80;94687.53;5091799;28;20227;-76
2020/12/13 02:22:53;;;;;;;2.97;1.93;;;;;;;3.87;89.55;94681.59;5068981;28;20721;-76
2020/12/13 02:25:22;;;;;;;3.40;2.03;;;;;;;3.87;89.59;94691.88;5060179;28;20182;-76
2020/12/13 02:27:48;;;;;;;5.13;2.40;;;;;;;3.88;89.53;94692.69;5111820;28;20199;-76
2020/12/13 02:30:13;;;;;;;3.47;2.20;;;;;;;3.85;89.48;94690.38;5093846;28;20215;-76
2020/12/13 02:32:38;;;;;;;2.63;2.30;;;;;;;3.85;89.99;94687.81;5079262;28;20647;-76
2020/12/13 02:35:05;;;;;;;4.20;2.47;;;;;;;3.89;89.90;94694.34;5081352;28;20619;-76
2020/12/13 02:37:30;;;;;;;5.87;3.80;;;;;;;3.85;89.77;94690.38;5073383;28;20211;-75
2020/12/13 02:39:56;;;;;;;4.23;3.83;;;;;;;3.84;90.09;94687.00;5073688;28;20200;-75
2020/12/13 02:42:21;;;;;;;6.40;3.70;;;;;;;3.85;89.61;94686.06;5087629;28;20204;-76
2020/12/13 02:44:46;;;;;;;4.60;3.80;;;;;;;3.91;89.84;94689.88;5072583;28;20232;-76
2020/12/13 02:47:12;;;;;;;5.00;4.30;;;;;;;3.89;89.75;94699.47;5090300;28;20184;-76
2020/12/13 02:49:41;;;;;;;5.53;3.80;;;;;;;3.90;89.76;94701.09;5093155;28;20213;-75
2020/12/13 02:52:07;;;;;;;5.50;4.40;;;;;;;3.89;90.37;94694.34;5093673;28;20711;-76
2020/12/13 02:54:32;;;;;;;4.93;4.10;;;;;;;3.85;90.13;94695.53;5077414;28;20210;-75
2020/12/13 02:56:58;;;;;;;6.77;4.47;;;;;;;3.86;89.76;94707.41;5090172;28;20184;-76
2020/12/13 02:59:23;;;;;;;6.27;4.33;;;;;;;3.84;90.32;94704.97;5091093;28;20202;-75
2020/12/13 03:01:48;;;;;;;4.20;3.80;;;;;;;3.85;89.66;94709.16;5056629;28;20235;-75
2020/12/13 03:04:14;;;;;;;7.27;4.27;;;;;;;3.83;89.89;94703.34;5087522;28;20222;-76
2020/12/13 03:06:39;;;;;;;4.30;3.90;;;;;;;3.88;89.75;94714.03;5076129;28;20184;-76
2020/12/13 03:09:04;;;;;;;5.30;4.23;;;;;;;3.90;89.66;94716.50;5060012;28;20194;-76
2020/12/13 03:11:30;;;;;;;5.77;4.43;;;;;;;3.86;89.99;94713.38;5077327;28;20590;-76
2020/12/13 03:13:55;;;;;;;6.17;4.93;;;;;;;3.92;89.67;94715.44;5095436;28;20195;-75
2020/12/13 03:16:20;;;;;;;5.10;4.37;;;;;;;3.86;89.87;94717.69;5086076;28;20690;-76
2020/12/13 03:18:46;;;;;;;4.63;4.23;;;;;;;3.88;89.68;94714.03;5108171;28;20180;-75
2020/12/13 03:21:11;;;;;;;7.23;5.07;;;;;;;3.90;90.16;94719.06;5080146;28;20195;-75
2020/12/13 03:23:36;;;;;;;8.47;5.47;;;;;;;3.89;89.92;94725.97;5115641;28;20241;-75
2020/12/13 03:26:02;;;;;;;5.93;4.80;;;;;;;3.90;89.99;94722.47;5083041;28;20189;-75
2020/12/13 03:28:27;;;;;;;7.13;5.47;;;;;;;3.87;90.37;94732.16;5076823;28;20275;-76
2020/12/13 03:30:53;;;;;;;6.13;4.87;;;;;;;3.86;90.18;94731.34;5076482;28;20204;-76
2020/12/13 03:33:18;;;;;;;8.93;5.17;;;;;;;3.89;90.00;94727.72;5077030;28;20584;-76
2020/12/13 03:35:43;;;;;;;7.57;5.80;;;;;;;3.88;90.27;94733.78;5057408;28;20177;-75
2020/12/13 03:38:09;;;;;;;8.23;5.47;;;;;;;3.86;89.99;94740.81;5074998;28;20215;-76
2020/12/13 03:40:34;;;;;;;7.53;5.77;;;;;;;3.88;89.77;94736.34;5079494;28;20187;-75
2020/12/13 03:42:59;;;;;;;7.00;6.17;;;;;;;3.92;90.09;94742.88;5096881;28;20172;-76
2020/12/13 03:45:25;;;;;;;9.13;7.30;;;;;;;3.93;89.86;94741.94;5096994;28;20192;-75
2020/12/13 03:47:50;;;;;;;6.87;6.13;;;;;;;3.95;89.83;94755.47;5079068;28;20192;-75
2020/12/13 03:50:15;;;;;;;8.80;7.57;;;;;;;3.98;90.20;94755.22;5076360;28;20185;-75
2020/12/13 03:52:40;;;;;;;9.37;7.67;;;;;;;3.97;89.75;94759.53;5094591;28;20639;-75
2020/12/13 03:55:06;;;;;;;11.50;8.80;;;;;;;4.00;90.29;94757.66;5094635;28;20694;-76
2020/12/13 03:57:31;;;;;;;12.73;8.97;;;;;;;4.01;90.31;94767.81;5092568;28;20194;-76
2020/12/13 03:59:56;;;;;;;11.73;9.10;;;;;;;3.98;90.20;94765.50;5058942;28;20172;-75
2020/12/13 04:02:22;;;;;;;13.20;9.13;;;;;;;4.03;90.21;94767.66;5076337;28;20321;-75
2020/12/13 04:04:47;;;;;;;12.87;9.00;;;;;;;4.04;90.14;94777.81;5094188;28;20204;-75
2020/12/13 04:07:12;;;;;;;11.40;8.37;;;;;;;4.04;89.84;94780.38;5076559;28;20236;-76
2020/12/13 04:09:38;;;;;;;9.70;8.03;;;;;;;4.01;90.12;94783.22;5071770;28;20184;-76
2020/12/13 04:12:03;;;;;;;9.27;7.30;;;;;;;4.01;90.00;94779.84;5079317;28;20611;-75
2020/12/13 04:14:28;;;;;;;8.37;6.70;;;;;;;4.00;89.91;94783.34;5096037;28;20195;-76
2020/12/13 04:16:54;;;;;;;7.47;6.67;;;;;;;3.97;90.12;94790.34;5095459;28;20215;-76
2020/12/13 04:19:19;;;;;;;7.80;5.87;;;;;;;4.01;90.16;94792.69;5096243;28;20212;-76
2020/12/13 04:21:44;;;;;;;6.60;5.20;;;;;;;4.02;90.15;94787.41;5078386;28;20601;-75
2020/12/13 04:24:10;;;;;;;4.30;3.90;;;;;;;4.07;90.03;94799.91;5096069;28;20196;-75
2020/12/13 04:26:35;;;;;;;4.97;3.80;;;;;;;4.08;89.89;94792.06;5096336;28;20245;-75
2020/12/13 04:29:00;;;;;;;4.17;3.40;;;;;;;4.04;89.75;94800.13;5092786;28;20242;-75
2020/12/13 04:31:26;;;;;;;3.23;2.90;;;;;;;4.05;89.76;94800.00;5093613;28;20230;-75
2020/12/13 04:33:51;;;;;;;3.40;3.10;;;;;;;4.03;90.04;94796.75;5079435;28;20352;-75
2020/12/13 04:36:17;;;;;;;4.57;3.13;;;;;;;3.99;90.21;94800.53;5095800;28;20172;-75
2020/12/13 04:38:42;;;;;;;3.17;2.50;;;;;;;3.99;89.98;94795.38;5112868;28;20259;-75
2020/12/13 04:41:07;;;;;;;2.47;2.17;;;;;;;3.97;89.90;94799.81;5064437;28;20679;-75
2020/12/13 04:43:33;;;;;;;2.40;1.90;;;;;;;3.92;90.13;94801.97;5101847;28;20285;-76
2020/12/13 04:45:58;;;;;;;1.60;1.20;;;;;;;3.94;90.02;94800.06;5075414;28;20207;-75
2020/12/13 04:48:24;;;;;;;1.50;1.40;;;;;;;3.93;90.37;94801.81;5075626;28;20206;-75
2020/12/13 04:50:50;;;;;;;2.70;1.20;;;;;;;3.96;89.94;94811.03;5070071;28;20183;-76
2020/12/13 04:53:17;;;;;;;1.33;1.23;;;;;;;3.97;90.02;94810.91;5073039;28;20702;-75
2020/12/13 04:55:51;;;;;;;1.50;1.40;;;;;;;3.99;89.72;94810.78;5112733;28;20211;-76
2020/12/13 04:58:17;;;;;;;2.30;1.57;;;;;;;3.99;90.03;94818.50;5095205;28;20180;-76
2020/12/13 05:00:45;;;;;;;1.30;1.20;;;;;;;3.93;89.50;94819.00;5095387;28;20217;-75
2020/12/13 05:03:15;;;;;;;2.07;1.53;;;;;;;3.94;89.56;94818.06;5084170;28;20194;-76
2020/12/13 05:05:40;;;;;;;1.67;1.47;;;;;;;3.93;89.72;94826.69;5075511;28;20628;-76
2020/12/13 05:08:05;;;;;;;2.87;1.50;;;;;;;3.88;89.68;94827.06;5093055;28;20201;-75
2020/12/13 05:10:30;;;;;;;2.33;1.40;;;;;;;3.94;89.79;94830.91;5093081;28;20182;-75
2020/12/13 05:12:56;;;;;;;1.57;1.47;;;;;;;3.88;89.26;94829.63;5054242;28;20169;-75
2020/12/13 05:15:21;;;;;;;1.60;1.50;;;;;;;3.87;89.70;94829.75;5101296;28;20189;-75
2020/12/13 05:17:46;;;;;;;2.40;1.40;;;;;;;3.81;89.70;94838.78;5074629;28;20177;-75
2020/12/13 05:20:12;;;;;;;1.90;1.40;;;;;;;3.84;89.45;94840.28;5058000;28;20567;-76
2020/12/13 05:22:38;;;;;;;2.20;1.17;;;;;;;3.84;89.28;94842.84;5071951;28;20215;-75
2020/12/13 05:25:10;;;;;;;1.40;1.30;;;;;;;3.87;88.80;94847.75;5073308;28;20200;-75
2020/12/13 05:27:39;;;;;;;1.80;1.70;;;;;;;3.88;89.15;94846.78;5072777;28;20181;-75
2020/12/13 05:30:04;;;;;;;2.53;1.60;;;;;;;3.83;89.20;94848.94;5054007;28;20189;-75
2020/12/13 05:32:31;;;;;;;2.80;1.60;;;;;;;3.84;89.27;94856.50;5072613;28;20173;-75
2020/12/13 05:34:56;;;;;;;1.90;1.60;;;;;;;3.88;89.16;94854.50;5086727;28;20273;-75
2020/12/13 05:37:21;;;;;;;1.77;1.50;;;;;;;3.84;89.33;94848.81;5074741;28;20252;-75
2020/12/13 05:39:52;;;;;;;2.33;2.00;;;;;;;3.83;89.15;94854.88;5074294;28;20616;-75
2020/12/13 05:42:25;;;;;;;1.90;1.80;;;;;;;3.86;88.90;94859.78;5074507;28;20208;-75
2020/12/13 05:45:10;;;;;;;2.30;2.10;;;;;;;3.83;89.21;94865.16;5073592;28;20199;-76
2020/12/13 05:50:27;;;;;;;2.43;1.80;;;;;;;3.84;89.60;94861.66;5074959;28;20188;-75
2020/12/13 05:52:53;;;;;;;1.83;1.73;;;;;;;3.82;89.52;94868.66;5077410;28;20626;-75
2020/12/13 05:55:18;;;;;;;1.60;1.37;;;;;;;3.80;89.31;94864.56;5068526;28;20268;-75
2020/12/13 05:57:47;;;;;;;1.53;1.43;;;;;;;3.82;89.55;94868.66;5074085;28;20179;-75
2020/12/13 06:00:12;;;;;;;1.60;1.37;;;;;;;3.82;89.54;94865.28;5073626;28;20188;-74
2020/12/13 06:02:38;;;;;;;1.73;1.63;;;;;;;3.81;89.65;94876.50;5092238;28;20591;-75
2020/12/13 06:05:06;;;;;;;2.10;1.53;;;;;;;3.85;89.22;94880.44;5091326;28;20200;-75
2020/12/13 06:07:34;;;;;;;1.90;1.80;;;;;;;3.83;89.36;94887.47;5071523;28;20628;-76
2020/12/13 06:10:06;;;;;;;1.60;1.50;;;;;;;3.81;89.49;94882.47;5077129;28;20172;-75
2020/12/13 06:12:32;;;;;;;2.33;2.13;;;;;;;3.83;89.75;94890.03;5077453;28;20213;-75
2020/12/13 06:14:59;;;;;;;3.17;2.30;;;;;;;3.82;89.50;94888.41;5094171;28;20252;-75
2020/12/13 06:17:26;;;;;;;2.70;2.50;;;;;;;3.90;89.21;94896.31;5078023;28;20616;-75
2020/12/13 06:19:52;;;;;;;4.23;3.10;;;;;;;3.87;89.72;94904.25;5087793;28;20211;-75
2020/12/13 06:22:20;;;;;;;4.27;3.87;;;;;;;3.91;89.70;94903.06;5076788;28;20311;-75
2020/12/13 06:24:46;;;;;;;6.23;5.03;;;;;;;3.87;89.88;94912.75;5094198;28;20222;-74
2020/12/13 06:27:12;;;;;;;4.70;4.30;;;;;;;3.82;89.77;94903.81;5080483;28;20185;-76
2020/12/13 06:29:37;;;;;;;7.63;5.17;;;;;;;3.82;90.19;94908.94;5094888;28;20194;-75
2020/12/13 06:32:02;;;;;;;7.57;6.33;;;;;;;3.86;90.22;94916.28;5094230;28;20254;-75
2020/12/13 06:34:30;;;;;;;10.80;7.67;;;;;;;3.90;89.76;94914.28;5110801;28;20285;-75
2020/12/13 06:36:57;;;;;;;10.53;7.83;;;;;;;3.87;90.14;94920.47;5094275;28;20180;-75
2020/12/13 06:39:22;;;;;;;9.93;8.20;;;;;;;3.86;90.08;94928.31;5077501;28;20277;-74
2020/12/13 06:41:49;;;;;;;12.80;9.30;;;;;;;3.86;90.13;94923.97;5073072;28;20288;-75
2020/12/13 06:44:16;;;;;;;11.73;9.40;;;;;;;3.84;90.17;94927.63;5073321;28;20245;-75
2020/12/13 06:46:43;;;;;;;10.37;8.53;;;;;;;3.86;90.21;94938.56;5073666;28;20169;-76
2020/12/13 06:49:09;;;;;;;11.27;9.30;;;;;;;3.82;90.03;94942.34;5052096;28;20615;-75
2020/12/13 06:51:36;;;;;;;15.23;9.70;;;;;;;3.82;90.20;94944.91;5073304;28;20223;-76
2020/12/13 06:54:10;;;;;;;15.80;10.33;;;;;;;3.82;90.67;94944.91;5073400;28;20658;-75
2020/12/13 06:56:35;;;;;;;13.13;9.50;;;;;;;3.78;90.05;94946.88;5076950;28;20176;-75
2020/12/13 06:59:03;;;;;;;9.60;8.27;;;;;;;3.82;90.36;94953.44;5083685;28;20188;-75
2020/12/13 07:01:32;;;;;;;7.47;5.63;;;;;;;3.78;90.20;94951.22;5072972;28;20275;-75
2020/12/13 07:03:58;;;;;;;7.03;6.10;;;;;;;3.73;90.14;94961.03;5073774;28;20284;-75
2020/12/13 07:06:41;;;;;;;11.83;6.67;;;;;;;3.78;90.20;94966.63;5072911;28;20183;-75
2020/12/13 07:09:07;;;;;;;10.83;7.57;;;;;;;3.76;89.88;94966.75;5073359;28;20203;-74
2020/12/13 07:11:33;;;;;;;27.30;17.33;;;;;;;3.76;90.41;94968.50;5055717;28;20628;-74
2020/12/13 07:14:05;;;;;;;14.80;11.23;;;;;;;3.72;90.31;94970.50;5096561;28;20234;-75
2020/12/13 07:16:35;;;;;;;14.23;11.30;;;;;;;3.78;90.02;94977.72;5073004;28;20176;-74
2020/12/13 07:19:12;;;;;;;27.63;20.87;;;;;;;3.75;90.16;94975.38;5073340;28;20191;-75
2020/12/13 07:21:39;;;;;;;22.83;17.00;;;;;;;3.76;89.74;94986.47;5062894;28;20230;-74
2020/12/13 07:24:05;;;;;;;37.00;22.13;;;;;;;3.78;89.78;94994.88;5056502;28;20291;-75
2020/12/13 07:26:32;;;;;;;41.27;25.93;;;;;;;3.71;89.63;94994.56;5072807;28;20173;-74
2020/12/13 07:28:59;;;;;;;16.30;12.73;;;;;;;3.72;89.86;94988.47;5090568;28;20196;-75
2020/12/13 07:31:26;;;;;;;10.73;7.83;;;;;;;3.65;89.51;95006.09;5068071;28;20220;-75
2020/12/13 07:33:52;;;;;;;10.53;8.57;;;;;;;3.61;89.48;95004.69;5072103;28;20560;-75
2020/12/13 07:36:17;;;;;;;9.73;7.97;;;;;;;3.64;89.18;95003.66;5072943;28;20176;-74
2020/12/13 07:38:43;;;;;;;12.90;8.53;;;;;;;3.65;89.43;95010.44;5091051;28;20199;-74
2020/12/13 07:41:19;;;;;;;9.97;8.53;;;;;;;3.64;88.93;95019.06;5076378;28;20281;-73
2020/12/13 07:43:56;;;;;;;9.00;7.90;;;;;;;3.64;88.81;95019.88;5058506;28;20199;-74
2020/12/13 07:46:22;;;;;;;8.47;7.03;;;;;;;3.67;88.77;95029.09;5093380;28;20175;-74
2020/12/13 07:48:47;;;;;;;7.13;6.37;;;;;;;3.65;88.78;95029.22;5109640;28;20323;-74
2020/12/13 07:51:13;;;;;;;9.17;6.73;;;;;;;3.64;88.66;95031.91;5067383;28;20191;-75
2020/12/13 07:53:38;;;;;;;8.33;6.83;;;;;;;3.73;88.70;95027.81;5075802;28;20206;-75
2020/12/13 07:56:03;;;;;;;7.63;6.33;;;;;;;3.73;88.44;95038.91;5054821;28;20181;-75
2020/12/13 07:58:28;;;;;;;6.33;5.63;;;;;;;3.73;87.60;95033.75;5074566;28;20185;-77
2020/12/13 08:01:08;;;;;;;8.77;6.47;;;;;;;3.72;87.96;95031.31;5083244;28;20261;-76
2020/12/13 08:03:46;;;;;;;9.10;6.20;;;;;;;3.72;87.41;95041.59;5079407;28;20564;-75
2020/12/13 08:06:13;;;;;;;8.97;6.37;;;;;;;3.72;87.11;95028.75;5079712;28;20179;-75
2020/12/13 08:08:43;;;;;;;14.23;9.40;;;;;;;3.76;87.27;95035.28;5096507;28;20180;-75
2020/12/13 08:11:12;;;;;;;18.67;10.87;;;;;;;3.77;87.07;95030.00;5087493;28;20230;-75
2020/12/13 08:13:51;;;;;;;18.00;11.67;;;;;;;3.76;86.91;95037.84;5084478;28;20200;-75
2020/12/13 08:16:17;;;;;;;18.60;10.93;;;;;;;3.74;86.84;95039.72;5062208;28;20655;-75
2020/12/13 08:18:44;;;;;;;28.97;15.97;;;;;;;3.76;86.79;95041.22;5114527;28;20308;-76
2020/12/13 08:21:12;;;;;;;16.03;9.60;;;;;;;3.80;86.84;95044.34;5110197;28;20244;-76
2020/12/13 08:23:38;;;;;;;9.20;6.83;;;;;;;3.79;86.01;95037.59;5075267;28;20694;-77
2020/12/13 08:26:05;;;;;;;7.93;6.77;;;;;;;3.77;86.72;95042.84;5076102;28;20180;-74
2020/12/13 08:28:30;;;;;;;8.63;6.87;;;;;;;3.69;86.64;95035.72;5075479;28;20187;-76
2020/12/13 08:30:56;;;;;;;10.37;6.67;;;;;;;3.67;86.77;95047.88;5075878;28;20180;-75
2020/12/13 08:33:23;;;;;;;12.17;7.73;;;;;;;3.62;86.43;95047.44;5056660;28;20212;-75
2020/12/13 08:35:49;;;;;;;8.60;7.27;;;;;;;3.72;86.15;95051.88;5089046;28;20189;-74
2020/12/13 08:38:14;;;;;;;8.10;6.67;;;;;;;3.73;86.53;95058.63;5078621;28;20186;-76
2020/12/13 08:40:41;;;;;;;10.17;6.93;;;;;;;3.78;86.74;95048.81;5095961;28;20176;-75
2020/12/13 08:43:07;;;;;;;10.70;6.63;;;;;;;3.84;86.22;95058.59;5070394;28;20265;-75
2020/12/13 08:45:33;;;;;;;6.80;6.10;;;;;;;3.92;86.16;95058.84;5075652;28;20172;-75
2020/12/13 08:48:00;;;;;;;6.27;5.67;;;;;;;3.93;86.04;95063.03;5058660;28;20709;-75
2020/12/13 08:50:25;;;;;;;6.57;5.80;;;;;;;3.94;85.61;95072.38;5075551;28;20234;-75
2020/12/13 08:52:51;;;;;;;7.80;6.47;;;;;;;3.91;85.87;95067.47;5075486;28;20173;-75
2020/12/13 08:55:25;;;;;;;8.67;6.50;;;;;;;3.90;85.86;95071.81;5056913;28;20229;-75
2020/12/13 08:57:58;;;;;;;7.80;5.87;;;;;;;4.00;85.09;95071.09;5095745;28;20202;-75
2020/12/13 09:00:24;;;;;;;7.53;5.40;;;;;;;4.01;85.16;95073.53;5095236;28;20785;-75
2020/12/13 09:03:00;;;;;;;6.90;5.37;;;;;;;4.14;84.87;95076.78;5094883;28;20207;-75
2020/12/13 09:05:31;;;;;;;7.30;6.10;;;;;;;4.06;84.83;95081.69;5080163;28;20180;-76
2020/12/13 09:07:56;;;;;;;8.57;7.63;;;;;;;4.21;84.67;95083.06;5077316;28;20625;-75
2020/12/13 09:10:23;;;;;;;6.43;5.03;;;;;;;4.26;84.17;95082.72;5054752;28;20272;-75
2020/12/13 09:12:48;;;;;;;5.03;4.53;;;;;;;4.34;84.32;95094.97;5071722;28;20183;-75
2020/12/13 09:15:16;;;;;;;7.37;4.70;;;;;;;4.35;84.12;95094.03;5076394;28;20567;-75
2020/12/13 09:17:51;;;;;;;5.83;4.30;;;;;;;4.28;83.39;95098.84;5060395;28;20646;-75
2020/12/13 09:20:28;;;;;;;4.70;4.17;;;;;;;4.33;84.06;95113.88;5094696;28;20179;-75
2020/12/13 09:23:07;;;;;;;7.20;4.90;;;;;;;4.37;83.80;95105.00;5112138;28;20218;-75
2020/12/13 09:25:44;;;;;;;5.13;4.63;;;;;;;4.37;83.66;95123.81;5071459;28;20188;-75
2020/12/13 09:28:11;;;;;;;5.37;4.60;;;;;;;4.41;83.21;95121.81;5071207;28;20214;-75
2020/12/13 09:30:37;;;;;;;6.27;5.67;;;;;;;4.46;83.54;95127.41;5071018;28;20173;-75
2020/12/13 09:33:03;;;;;;;6.13;4.50;;;;;;;4.46;83.42;95140.28;5037843;28;20185;-75
2020/12/13 09:35:30;;;;;;;8.37;7.17;;;;;;;4.48;83.49;95134.06;5054668;28;20251;-75
2020/12/13 09:37:56;;;;;;;7.60;4.53;;;;;;;4.56;83.82;95141.19;5073178;28;20184;-75
2020/12/13 09:40:21;;;;;;;6.27;4.23;;;;;;;4.66;83.49;95142.09;5073599;28;20180;-75
2020/12/13 09:42:47;;;;;;;7.30;4.13;;;;;;;4.77;83.16;95141.22;5091804;28;20212;-76
2020/12/13 09:45:12;;;;;;;9.93;7.13;;;;;;;4.89;82.77;95134.31;5057878;28;20181;-76
2020/12/13 09:47:37;;;;;;;6.27;4.80;;;;;;;4.89;82.42;95127.41;5051807;28;20603;-75
2020/12/13 09:50:03;;;;;;;5.10;3.60;;;;;;;4.78;82.39;95146.28;5069679;28;20567;-75
2020/12/13 09:52:30;;;;;;;6.73;4.00;;;;;;;4.83;82.27;95148.47;5092193;28;20533;-75
2020/12/13 09:54:57;;;;;;;4.87;4.00;;;;;;;4.75;82.21;95140.53;5074396;28;20241;-75
2020/12/13 09:57:22;;;;;;;5.43;4.33;;;;;;;4.84;82.31;95148.34;5072295;28;20594;-75
2020/12/13 09:59:47;;;;;;;7.20;4.47;;;;;;;4.80;82.26;95159.81;5079807;28;20240;-75
2020/12/13 10:02:13;;;;;;;7.93;4.60;;;;;;;4.74;82.43;95149.19;5074067;28;20192;-77
2020/12/13 10:04:38;;;;;;;8.00;4.23;;;;;;;4.73;82.05;95156.09;5092127;28;20250;-75
2020/12/13 10:09:37;;;;;;;4.33;3.13;;;;;;;4.83;82.23;95167.28;5070783;28;20382;-76
2020/12/13 10:12:03;;;;;;;5.00;3.80;;;;;;;4.60;81.54;95165.72;5070562;28;20670;-76
2020/12/13 10:14:28;;;;;;;5.73;3.23;;;;;;;4.59;81.62;95170.97;5053245;28;20201;-74
2020/12/13 10:16:54;;;;;;;5.27;3.80;;;;;;;4.48;81.82;95164.09;5053608;28;20181;-75
2020/12/13 10:19:19;;;;;;;5.87;3.80;;;;;;;4.48;82.29;95175.22;5072237;28;20181;-75
2020/12/13 10:21:44;;;;;;;6.43;4.07;;;;;;;4.54;82.02;95168.78;5073760;28;20200;-74
2020/12/13 10:24:10;;;;;;;4.70;3.47;;;;;;;4.45;81.28;95177.22;5073342;28;20205;-76
2020/12/13 10:26:37;;;;;;;8.77;4.73;;;;;;;4.56;81.11;95174.63;5073936;28;20181;-75
2020/12/13 10:29:04;;;;;;;5.33;3.53;;;;;;;4.48;80.52;95171.81;5073884;28;20180;-74
2020/12/13 10:31:33;;;;;;;9.07;6.00;;;;;;;4.48;81.23;95174.38;5069809;28;20211;-75
2020/12/13 10:34:00;;;;;;;13.03;7.03;;;;;;;4.49;81.64;95176.84;5091807;28;20206;-75
2020/12/13 10:36:25;;;;;;;10.73;6.60;;;;;;;4.55;81.59;95171.22;5070153;28;20564;-75
2020/12/13 10:38:54;;;;;;;17.50;10.13;;;;;;;4.60;81.21;95176.03;5069562;28;20177;-75
2020/12/13 10:41:20;;;;;;;7.43;6.07;;;;;;;4.65;81.55;95166.19;5037213;28;20665;-75
2020/12/13 10:43:46;;;;;;;6.50;4.10;;;;;;;4.71;81.04;95170.03;5053665;28;20205;-75
2020/12/13 10:46:11;;;;;;;7.20;4.17;;;;;;;4.52;80.64;95170.66;5053572;28;20251;-76
2020/12/13 10:48:36;;;;;;;10.63;6.23;;;;;;;4.53;82.03;95180.00;5045205;28;20246;-76
2020/12/13 10:51:02;;;;;;;5.77;3.63;;;;;;;4.55;81.29;95185.84;5071266;28;20639;-75
2020/12/13 10:53:43;;;;;;;15.43;8.00;;;;;;;4.52;81.37;95184.34;5053596;28;20208;-75
2020/12/13 10:56:09;;;;;;;8.53;4.90;;;;;;;4.43;81.27;95179.09;5052225;28;20181;-75
2020/12/13 10:58:35;;;;;;;8.20;4.23;;;;;;;4.44;81.73;95181.53;5084932;28;20190;-75
2020/12/13 11:01:03;;;;;;;5.20;2.70;;;;;;;4.54;80.98;95177.31;5091601;28;20179;-74
2020/12/13 11:03:28;;;;;;;3.50;3.20;;;;;;;4.57;80.98;95186.53;5073489;28;20192;-75
2020/12/13 11:05:54;;;;;;;5.30;4.47;;;;;;;4.51;81.19;95189.59;5073553;28;20183;-75
2020/12/13 11:08:22;;;;;;;6.63;5.17;;;;;;;4.44;81.60;95194.41;5088099;28;20214;-75
2020/12/13 11:10:48;;;;;;;9.00;5.70;;;;;;;4.33;81.88;95185.84;5091333;28;20609;-75
2020/12/13 11:13:13;;;;;;;7.20;5.73;;;;;;;4.26;82.17;95191.50;5073199;28;20284;-76
2020/12/13 11:15:39;;;;;;;6.27;4.27;;;;;;;4.15;82.71;95193.22;5090412;28;20187;-75
2020/12/13 11:18:05;;;;;;;6.17;4.53;;;;;;;4.14;82.63;95186.47;5055368;28;20219;-75
2020/12/13 11:20:30;;;;;;;6.33;4.77;;;;;;;4.13;82.70;95182.25;5080927;28;20211;-76
2020/12/13 11:22:55;;;;;;;7.30;4.37;;;;;;;4.07;82.98;95191.28;5090961;28;20208;-75
2020/12/13 11:25:21;;;;;;;8.80;4.87;;;;;;;4.04;83.38;95182.97;5090940;28;20219;-75
2020/12/13 11:27:46;;;;;;;7.47;4.77;;;;;;;4.04;83.16;95183.78;5061224;28;20179;-76
2020/12/13 11:30:11;;;;;;;10.60;6.00;;;;;;;4.03;83.14;95194.16;5090428;28;20639;-77
2020/12/13 11:32:38;;;;;;;9.03;6.07;;;;;;;4.04;83.49;95188.09;5076761;28;20228;-75
2020/12/13 11:35:04;;;;;;;10.67;6.33;;;;;;;4.05;83.24;95182.84;5068426;28;20282;-76
2020/12/13 11:37:29;;;;;;;10.07;6.97;;;;;;;4.08;83.63;95182.63;5084076;28;20193;-75
2020/12/13 11:39:56;;;;;;;6.10;4.37;;;;;;;4.05;82.90;95180.25;5074375;28;20189;-76
2020/12/13 11:42:22;;;;;;;10.47;5.10;;;;;;;4.14;83.16;95178.75;5093284;28;20200;-76